createdAt,value
2022-10-22T00:00:44.468Z,6.35
2022-10-22T00:03:11.758Z,6.72
2022-10-22T00:05:38.794Z,7.32
2022-10-22T00:08:06.007Z,7.30
2022-10-22T00:10:33.144Z,7.03
2022-10-22T00:13:00.725Z,6.07
2022-10-22T00:15:27.716Z,7.40
2022-10-22T00:17:54.733Z,7.10
2022-10-22T00:20:22.934Z,7.22
2022-10-22T00:25:22.260Z,7.40
2022-10-22T00:27:49.632Z,7.22
2022-10-22T00:30:16.700Z,7.13
2022-10-22T00:32:43.797Z,7.68
2022-10-22T00:35:11.039Z,7.22
2022-10-22T00:37:38.274Z,7.38
2022-10-22T00:40:05.863Z,7.93
2022-10-22T00:42:34.720Z,8.07
2022-10-22T00:45:11.082Z,7.70
2022-10-22T00:47:42.883Z,7.70
2022-10-22T00:50:15.921Z,7.70
2022-10-22T00:55:11.643Z,7.57
2022-10-22T00:57:39.177Z,8.52
2022-10-22T01:00:06.969Z,7.65
2022-10-22T01:02:34.325Z,8.57
2022-10-22T01:05:01.338Z,7.28
2022-10-22T01:07:28.720Z,8.07
2022-10-22T01:10:09.155Z,7.47
2022-10-22T01:12:39.228Z,8.10
2022-10-22T01:15:53.991Z,7.50
2022-10-22T01:18:37.222Z,7.55
2022-10-22T01:24:10.688Z,7.95
2022-10-22T01:27:08.710Z,7.95
2022-10-22T01:30:00.581Z,8.18
2022-10-22T01:32:31.841Z,8.18
2022-10-22T01:35:04.413Z,7.90
2022-10-22T01:37:36.635Z,8.63
2022-10-22T01:40:05.861Z,7.43
2022-10-22T01:42:33.114Z,8.20
2022-10-22T01:45:00.163Z,6.93
2022-10-22T01:47:55.014Z,7.82
2022-10-22T01:50:46.423Z,7.65
2022-10-22T01:53:36.214Z,7.90
2022-10-22T01:56:24.991Z,7.80
2022-10-22T01:59:04.871Z,7.78
2022-10-22T02:01:41.320Z,7.72
2022-10-22T02:04:15.596Z,7.80
2022-10-22T02:06:45.593Z,8.35
2022-10-22T02:09:16.694Z,8.00
2022-10-22T02:11:46.415Z,7.90
2022-10-22T02:14:15.751Z,8.40
2022-10-22T02:16:46.572Z,8.55
2022-10-22T02:19:24.689Z,7.68
2022-10-22T02:21:53.044Z,7.72
2022-10-22T02:24:21.564Z,8.50
2022-10-22T02:27:25.869Z,8.13
2022-10-22T02:30:07.124Z,8.43
2022-10-22T02:32:45.714Z,8.30
2022-10-22T02:35:17.169Z,8.38
2022-10-22T02:37:44.631Z,7.78
2022-10-22T02:40:12.507Z,8.38
2022-10-22T02:42:41.948Z,8.82
2022-10-22T02:45:09.808Z,7.40
2022-10-22T02:47:36.824Z,8.43
2022-10-22T02:50:06.551Z,8.10
2022-10-22T02:52:36.914Z,7.95
2022-10-22T02:55:05.773Z,8.10
2022-10-22T02:57:33.453Z,8.07
2022-10-22T03:00:00.698Z,7.95
2022-10-22T03:02:27.728Z,7.50
2022-10-22T03:04:54.741Z,7.82
2022-10-22T03:07:22.049Z,7.20
2022-10-22T03:09:49.068Z,7.20
2022-10-22T03:12:16.198Z,7.47
2022-10-22T03:14:43.289Z,7.97
2022-10-22T03:17:10.592Z,7.53
2022-10-22T03:19:37.771Z,7.47
2022-10-22T03:22:10.227Z,7.88
2022-10-22T03:24:42.673Z,7.40
2022-10-22T03:27:11.607Z,7.82
2022-10-22T03:29:40.428Z,8.02
2022-10-22T03:32:07.577Z,7.53
2022-10-22T03:34:34.906Z,7.80
2022-10-22T03:37:02.543Z,8.02
2022-10-22T03:39:34.998Z,7.88
2022-10-22T03:42:02.710Z,7.95
2022-10-22T03:44:30.647Z,7.90
2022-10-22T03:47:00.206Z,7.85
2022-10-22T03:49:29.592Z,8.30
2022-10-22T03:51:56.609Z,8.50
2022-10-22T03:54:23.649Z,8.13
2022-10-22T03:56:50.640Z,8.80
2022-10-22T03:59:17.671Z,8.25
2022-10-22T04:01:44.754Z,8.15
2022-10-22T04:04:11.779Z,8.20
2022-10-22T04:06:38.758Z,8.38
2022-10-22T04:09:05.823Z,7.88
2022-10-22T04:11:33.224Z,8.25
2022-10-22T04:14:00.281Z,7.93
2022-10-22T04:16:31.154Z,8.82
2022-10-22T04:18:58.701Z,8.30
2022-10-22T04:21:26.317Z,8.23
2022-10-22T04:23:53.547Z,8.05
2022-10-22T04:26:21.222Z,8.30
2022-10-22T04:28:51.904Z,7.55
2022-10-22T04:31:21.909Z,7.10
2022-10-22T04:33:56.694Z,7.88
2022-10-22T04:36:25.049Z,7.93
2022-10-22T04:38:57.724Z,7.72
2022-10-22T04:41:29.466Z,7.65
2022-10-22T04:43:57.757Z,7.50
2022-10-22T04:46:26.896Z,7.97
2022-10-22T04:48:53.952Z,9.23
2022-10-22T04:51:23.387Z,7.53
2022-10-22T04:53:50.712Z,7.88
2022-10-22T04:56:21.648Z,8.32
2022-10-22T04:59:00.850Z,8.27
2022-10-22T05:01:40.076Z,8.32
2022-10-22T05:04:15.553Z,7.45
2022-10-22T05:06:43.413Z,7.47
2022-10-22T05:09:19.062Z,8.05
2022-10-22T05:11:50.942Z,8.27
2022-10-22T05:14:21.497Z,7.45
2022-10-22T05:16:49.624Z,7.55
2022-10-22T05:19:26.859Z,7.55
2022-10-22T05:21:57.907Z,8.55
2022-10-22T05:24:25.665Z,8.77
2022-10-22T05:26:54.620Z,7.80
2022-10-22T05:29:23.239Z,7.60
2022-10-22T05:31:50.970Z,8.05
2022-10-22T05:34:17.962Z,8.07
2022-10-22T05:36:45.313Z,7.50
2022-10-22T05:39:12.671Z,7.07
2022-10-22T05:41:39.781Z,7.75
2022-10-22T05:44:06.949Z,6.97
2022-10-22T05:46:36.314Z,7.72
2022-10-22T05:49:06.401Z,7.63
2022-10-22T05:51:35.639Z,7.78
2022-10-22T05:54:05.145Z,6.93
2022-10-22T05:56:32.683Z,7.50
2022-10-22T06:01:32.562Z,6.63
2022-10-22T06:04:02.436Z,6.97
2022-10-22T06:06:34.365Z,7.00
2022-10-22T06:09:15.742Z,7.40
2022-10-22T06:11:42.883Z,7.57
2022-10-22T06:14:11.089Z,8.23
2022-10-22T06:16:38.334Z,7.70
2022-10-22T06:19:07.027Z,7.72
2022-10-22T06:21:36.374Z,7.63
2022-10-22T06:24:06.390Z,6.53
2022-10-22T06:26:36.512Z,7.32
2022-10-22T06:29:04.086Z,6.78
2022-10-22T06:31:41.011Z,6.75
2022-10-22T06:34:11.801Z,7.22
2022-10-22T06:36:46.388Z,7.55
2022-10-22T06:39:15.500Z,7.97
2022-10-22T06:41:42.649Z,6.72
2022-10-22T06:44:14.855Z,7.03
2022-10-22T06:46:44.565Z,6.75
2022-10-22T06:49:15.960Z,6.63
2022-10-22T06:51:43.677Z,6.93
2022-10-22T06:54:11.032Z,7.78
2022-10-22T06:56:38.271Z,7.20
2022-10-22T06:59:11.155Z,7.53
2022-10-22T07:01:40.953Z,7.82
2022-10-22T07:04:09.227Z,7.32
2022-10-22T07:06:36.337Z,7.75
2022-10-22T07:09:03.477Z,7.32
2022-10-22T07:11:39.173Z,7.72
2022-10-22T07:14:06.176Z,7.90
2022-10-22T07:16:33.331Z,6.35
2022-10-22T07:19:04.095Z,7.10
2022-10-22T07:21:32.053Z,7.07
2022-10-22T07:24:02.192Z,7.03
2022-10-22T07:26:31.237Z,7.15
2022-10-22T07:29:01.821Z,7.95
2022-10-22T07:31:29.140Z,6.57
2022-10-22T07:33:56.824Z,7.38
2022-10-22T07:36:24.225Z,6.25
2022-10-22T07:38:56.703Z,6.00
2022-10-22T07:41:24.316Z,6.60
2022-10-22T07:43:59.021Z,6.05
2022-10-22T07:46:27.058Z,6.30
2022-10-22T07:48:54.392Z,6.13
2022-10-22T07:51:26.184Z,5.72
2022-10-22T07:53:53.382Z,5.53
2022-10-22T07:56:20.789Z,5.32
2022-10-22T07:58:47.791Z,6.22
2022-10-22T08:01:17.855Z,4.80
2022-10-22T08:03:46.058Z,5.80
2022-10-22T08:06:14.974Z,4.95
2022-10-22T08:08:43.698Z,5.50
2022-10-22T08:11:11.226Z,5.55
2022-10-22T08:13:42.731Z,5.10
2022-10-22T08:16:12.192Z,5.10
2022-10-22T08:18:39.631Z,5.18
2022-10-22T08:21:09.108Z,4.90
2022-10-22T08:23:36.645Z,4.78
2022-10-22T08:26:04.059Z,6.00
2022-10-22T08:28:36.024Z,5.22
2022-10-22T08:31:07.894Z,5.28
2022-10-22T08:33:35.281Z,5.40
2022-10-22T08:36:07.201Z,4.97
2022-10-22T08:38:35.466Z,4.55
2022-10-22T08:41:18.096Z,4.80
2022-10-22T08:44:03.001Z,4.90
2022-10-22T08:46:48.515Z,4.22
2022-10-22T08:49:42.960Z,4.28
2022-10-22T08:52:22.675Z,4.50
2022-10-22T08:54:54.615Z,4.90
2022-10-22T08:57:32.818Z,6.00
2022-10-22T09:00:11.794Z,5.22
2022-10-22T09:02:57.281Z,4.97
2022-10-22T09:05:48.437Z,4.53
2022-10-22T09:08:19.555Z,4.32
2022-10-22T09:10:56.184Z,4.20
2022-10-22T09:13:24.122Z,5.13
2022-10-22T09:15:56.494Z,4.30
2022-10-22T09:19:01.673Z,4.85
2022-10-22T09:21:55.579Z,4.28
2022-10-22T09:24:37.276Z,4.40
2022-10-22T09:27:27.664Z,4.63
2022-10-22T09:29:57.601Z,4.65
2022-10-22T09:32:25.847Z,4.50
2022-10-22T09:34:57.036Z,4.32
2022-10-22T09:37:30.500Z,4.50
2022-10-22T09:40:06.802Z,3.45
2022-10-22T09:42:35.112Z,3.38
2022-10-22T09:45:06.413Z,3.53
2022-10-22T09:47:43.668Z,3.60
2022-10-22T09:50:42.461Z,4.50
2022-10-22T09:53:22.069Z,3.38
2022-10-22T09:56:01.044Z,3.42
2022-10-22T09:58:28.624Z,3.92
2022-10-22T10:01:03.798Z,3.78
2022-10-22T10:03:33.616Z,3.85
2022-10-22T10:06:05.861Z,3.70
2022-10-22T10:08:35.801Z,3.58
2022-10-22T10:11:17.214Z,3.10
2022-10-22T10:14:05.693Z,4.43
2022-10-22T10:16:54.615Z,3.50
2022-10-22T10:19:41.305Z,4.22
2022-10-22T10:23:01.472Z,4.00
2022-10-22T10:25:36.342Z,3.78
2022-10-22T10:28:56.455Z,3.63
2022-10-22T10:31:36.618Z,3.20
2022-10-22T10:34:29.092Z,2.63
2022-10-22T10:37:11.636Z,2.55
2022-10-22T10:40:46.716Z,2.55
2022-10-22T10:43:53.753Z,2.30
2022-10-22T10:46:37.148Z,2.50
2022-10-22T10:49:19.420Z,3.00
2022-10-22T10:52:10.115Z,2.83
2022-10-22T10:55:04.611Z,2.90
2022-10-22T10:57:46.896Z,2.90
2022-10-22T11:00:22.825Z,3.60
2022-10-22T11:03:34.135Z,2.33
2022-10-22T11:06:12.738Z,2.53
2022-10-22T11:08:58.169Z,3.17
2022-10-22T11:11:35.509Z,2.75
2022-10-22T11:14:11.244Z,2.50
2022-10-22T11:16:53.064Z,2.30
2022-10-22T11:19:49.806Z,2.60
2022-10-22T11:22:27.250Z,2.30
2022-10-22T11:25:16.588Z,3.13
2022-10-22T11:28:03.201Z,2.40
2022-10-22T11:30:38.020Z,2.70
2022-10-22T11:33:15.794Z,2.90
2022-10-22T11:35:48.808Z,2.60
2022-10-22T11:38:22.538Z,3.47
2022-10-22T11:41:18.516Z,3.15
2022-10-22T11:43:59.743Z,4.38
2022-10-22T11:46:54.049Z,3.22
2022-10-22T11:49:28.161Z,3.17
2022-10-22T11:52:24.659Z,3.45
2022-10-22T11:54:56.073Z,3.80
2022-10-22T11:57:44.464Z,3.15
2022-10-22T12:00:43.256Z,3.53
2022-10-22T12:03:32.936Z,3.33
2022-10-22T12:06:19.849Z,3.35
2022-10-22T12:08:49.785Z,3.55
2022-10-22T12:11:21.583Z,3.95
2022-10-22T12:14:30.031Z,3.92
2022-10-22T12:17:01.908Z,3.60
2022-10-22T12:19:39.377Z,3.50
2022-10-22T12:22:20.975Z,3.92
2022-10-22T12:24:55.237Z,3.30
2022-10-22T12:27:25.769Z,3.10
2022-10-22T12:29:57.753Z,3.65
2022-10-22T12:32:51.215Z,3.28
2022-10-22T12:37:53.225Z,4.18
2022-10-22T12:40:26.009Z,4.30
2022-10-22T12:42:58.981Z,3.50
2022-10-22T12:47:59.420Z,2.65
2022-10-22T12:50:49.492Z,3.40
2022-10-22T12:53:42.140Z,3.58
2022-10-22T12:56:17.980Z,3.75
2022-10-22T12:59:00.844Z,3.88
2022-10-22T13:01:35.158Z,4.00
2022-10-22T13:04:17.048Z,3.83
2022-10-22T13:06:49.040Z,3.47
2022-10-22T13:09:27.707Z,3.93
2022-10-22T13:12:04.339Z,3.78
2022-10-22T13:14:34.320Z,3.83
2022-10-22T13:17:12.902Z,4.32
2022-10-22T13:19:53.722Z,4.80
2022-10-22T13:22:36.622Z,4.85
2022-10-22T13:25:16.245Z,4.53
2022-10-22T13:27:46.182Z,4.63
2022-10-22T13:30:30.972Z,4.63
2022-10-22T13:33:08.552Z,4.40
2022-10-22T13:38:45.021Z,4.50
2022-10-22T13:41:31.122Z,4.18
2022-10-22T13:44:01.031Z,5.05
2022-10-22T13:46:46.737Z,4.03
2022-10-22T13:49:22.699Z,4.38
2022-10-22T13:51:53.126Z,4.32
2022-10-22T13:54:24.371Z,4.63
2022-10-22T13:56:53.766Z,4.32
2022-10-22T13:59:22.991Z,4.72
2022-10-22T14:01:51.815Z,4.70
2022-10-22T14:04:19.199Z,4.50
2022-10-22T14:06:46.394Z,4.38
2022-10-22T14:09:15.929Z,4.03
2022-10-22T14:11:43.288Z,4.68
2022-10-22T14:14:14.377Z,4.45
2022-10-22T14:16:41.778Z,3.85
2022-10-22T14:19:15.667Z,4.50
2022-10-22T14:21:42.809Z,4.10
2022-10-22T14:24:13.135Z,3.90
2022-10-22T14:26:41.147Z,4.00
2022-10-22T14:29:09.757Z,4.07
2022-10-22T14:31:43.833Z,4.65
2022-10-22T14:34:13.757Z,4.82
2022-10-22T14:36:43.974Z,5.78
2022-10-22T14:39:12.452Z,5.22
2022-10-22T14:41:40.063Z,5.00
2022-10-22T14:44:07.770Z,4.80
2022-10-22T14:46:34.933Z,5.20
2022-10-22T14:49:02.989Z,5.03
2022-10-22T14:51:30.440Z,4.95
2022-10-22T14:54:01.428Z,4.70
2022-10-22T14:56:28.570Z,5.40
2022-10-22T14:58:55.794Z,5.07
2022-10-22T15:01:25.104Z,5.18
2022-10-22T15:03:52.063Z,5.85
2022-10-22T15:06:19.151Z,5.80
2022-10-22T15:08:46.319Z,6.25
2022-10-22T15:11:13.716Z,5.88
2022-10-22T15:13:42.289Z,6.22
2022-10-22T15:16:11.259Z,5.85
2022-10-22T15:18:38.295Z,6.20
2022-10-22T15:21:09.060Z,4.78
2022-10-22T15:23:36.739Z,5.40
2022-10-22T15:26:03.867Z,5.72
2022-10-22T15:28:30.886Z,4.72
2022-10-22T15:31:00.140Z,5.20
2022-10-22T15:33:28.754Z,4.28
2022-10-22T15:35:56.903Z,5.22
2022-10-22T15:43:35.892Z,5.30
2022-10-22T15:46:17.072Z,5.03
2022-10-22T15:48:44.281Z,5.40
2022-10-22T15:51:16.713Z,5.43
2022-10-22T15:53:44.479Z,5.70
2022-10-22T15:56:12.189Z,5.05
2022-10-22T15:58:39.182Z,5.53
2022-10-22T16:01:11.484Z,5.82
2022-10-22T16:03:38.719Z,6.20
2022-10-22T16:06:07.701Z,6.68
2022-10-22T16:08:35.079Z,7.25
2022-10-22T16:11:02.134Z,6.53
2022-10-22T16:13:29.236Z,6.72
2022-10-22T16:15:56.256Z,7.03
2022-10-22T16:18:24.088Z,7.13
2022-10-22T16:20:51.253Z,7.20
2022-10-22T16:23:19.226Z,6.70
2022-10-22T16:25:46.821Z,8.90
2022-10-22T16:28:22.543Z,7.72
2022-10-22T16:30:50.697Z,6.90
2022-10-22T16:33:20.520Z,6.93
2022-10-22T16:35:49.706Z,7.15
2022-10-22T16:38:18.939Z,7.40
2022-10-22T16:40:46.161Z,7.82
2022-10-22T16:43:13.233Z,7.25
2022-10-22T16:45:40.252Z,7.72
2022-10-22T16:48:07.216Z,7.68
2022-10-22T16:50:34.257Z,7.43
2022-10-22T16:53:01.236Z,7.07
2022-10-22T16:55:28.285Z,8.02
2022-10-22T16:57:55.272Z,7.07
2022-10-22T17:00:22.485Z,6.65
2022-10-22T17:02:54.086Z,6.97
2022-10-22T17:05:21.761Z,7.55
2022-10-22T17:07:52.951Z,7.15
2022-10-22T17:10:20.897Z,7.78
2022-10-22T17:12:48.741Z,7.90
2022-10-22T17:15:15.979Z,7.55
2022-10-22T17:17:43.158Z,7.45
2022-10-22T17:20:11.574Z,7.05
2022-10-22T17:22:38.673Z,6.95
2022-10-22T17:25:19.559Z,6.93
2022-10-22T17:27:46.552Z,6.43
2022-10-22T17:30:19.216Z,7.05
2022-10-22T17:32:47.822Z,6.43
2022-10-22T17:35:16.762Z,7.38
2022-10-22T17:37:45.179Z,7.15
2022-10-22T17:40:14.149Z,7.20
2022-10-22T17:42:41.519Z,7.57
2022-10-22T17:45:09.194Z,7.18
2022-10-22T17:47:36.626Z,7.00
2022-10-22T17:50:03.984Z,7.50
2022-10-22T17:52:31.324Z,7.57
2022-10-22T17:54:58.541Z,6.82
2022-10-22T17:57:25.698Z,7.07
2022-10-22T17:59:58.286Z,7.72
2022-10-22T18:02:25.829Z,7.15
2022-10-22T18:04:53.294Z,7.13
2022-10-22T18:07:21.107Z,7.63
2022-10-22T18:09:48.890Z,7.38
2022-10-22T18:12:18.834Z,6.63
2022-10-22T18:14:47.175Z,7.28
2022-10-22T18:19:52.157Z,7.57
2022-10-22T18:22:19.453Z,6.80
2022-10-22T18:24:46.586Z,7.38
2022-10-22T18:27:16.124Z,7.00
2022-10-22T18:29:43.209Z,6.95
2022-10-22T18:32:13.176Z,6.95
2022-10-22T18:34:40.587Z,7.22
2022-10-22T18:37:12.790Z,6.72
2022-10-22T18:39:39.944Z,7.10
2022-10-22T18:42:08.016Z,6.85
2022-10-22T18:44:36.351Z,7.00
2022-10-22T18:47:03.560Z,7.43
2022-10-22T18:49:30.595Z,6.68
2022-10-22T18:52:00.796Z,8.23
2022-10-22T18:54:27.886Z,6.72
2022-10-22T18:57:00.593Z,6.35
2022-10-22T18:59:30.087Z,7.32
2022-10-22T19:01:59.494Z,7.18
2022-10-22T19:04:37.082Z,6.45
2022-10-22T19:07:05.618Z,5.65
2022-10-22T19:09:32.825Z,6.40
2022-10-22T19:11:59.982Z,6.25
2022-10-22T19:14:27.150Z,6.72
2022-10-22T19:16:54.533Z,7.18
2022-10-22T19:19:22.766Z,7.65
2022-10-22T19:21:50.640Z,7.15
2022-10-22T19:24:19.420Z,7.22
2022-10-22T19:26:47.690Z,7.63
2022-10-22T19:29:17.066Z,7.30
2022-10-22T19:31:47.740Z,7.60
2022-10-22T19:34:14.821Z,7.50
2022-10-22T19:36:41.936Z,8.48
2022-10-22T19:39:09.180Z,7.20
2022-10-22T19:41:36.355Z,8.18
2022-10-22T19:44:05.625Z,7.30
2022-10-22T19:46:32.829Z,7.43
2022-10-22T19:49:00.106Z,7.53
2022-10-22T19:51:35.677Z,7.13
2022-10-22T19:54:09.159Z,7.93
2022-10-22T19:56:37.838Z,7.63
2022-10-22T19:59:08.251Z,6.95
2022-10-22T20:01:35.375Z,7.22
2022-10-22T20:04:02.763Z,7.13
2022-10-22T20:06:30.112Z,7.82
2022-10-22T20:08:57.880Z,8.18
2022-10-22T20:11:27.831Z,8.50
2022-10-22T20:13:55.409Z,7.88
2022-10-22T20:16:24.393Z,7.82
2022-10-22T20:18:52.601Z,7.28
2022-10-22T20:21:20.764Z,7.60
2022-10-22T20:23:53.008Z,8.45
2022-10-22T20:26:24.124Z,8.48
2022-10-22T20:28:52.430Z,9.52
2022-10-22T20:31:20.972Z,9.70
2022-10-22T20:33:50.593Z,9.95
2022-10-22T20:36:20.469Z,11.25
2022-10-22T20:38:49.358Z,12.30
2022-10-22T20:41:19.442Z,11.88
2022-10-22T20:43:48.557Z,12.63
2022-10-22T20:46:23.162Z,11.95
2022-10-22T20:48:55.296Z,11.80
2022-10-22T20:51:25.299Z,11.10
2022-10-22T20:53:53.205Z,10.38
2022-10-22T20:56:20.850Z,10.15
2022-10-22T20:58:49.500Z,9.15
2022-10-22T21:01:24.105Z,9.93
2022-10-22T21:03:52.692Z,9.50
2022-10-22T21:06:23.293Z,9.88
2022-10-22T21:08:51.528Z,10.70
2022-10-22T21:11:20.056Z,10.55
2022-10-22T21:13:47.342Z,11.20
2022-10-22T21:16:19.216Z,10.07
2022-10-22T21:18:47.310Z,10.63
2022-10-22T21:21:17.693Z,10.55
2022-10-22T21:23:45.043Z,10.20
2022-10-22T21:26:12.842Z,9.77
2022-10-22T21:28:39.913Z,10.05
2022-10-22T21:31:10.053Z,9.15
2022-10-22T21:33:38.808Z,8.70
2022-10-22T21:36:09.140Z,9.25
2022-10-22T21:38:37.595Z,8.30
2022-10-22T21:41:10.300Z,8.52
2022-10-22T21:43:39.369Z,8.18
2022-10-22T21:46:12.746Z,8.23
2022-10-22T21:48:43.138Z,7.20
2022-10-22T21:51:15.432Z,7.30
2022-10-22T21:53:43.097Z,7.72
2022-10-22T21:56:15.608Z,7.68
2022-10-22T21:58:43.291Z,7.47
2022-10-22T22:01:11.126Z,6.95
2022-10-22T22:03:38.306Z,7.78
2022-10-22T22:06:06.523Z,7.88
2022-10-22T22:08:34.528Z,7.80
2022-10-22T22:11:08.028Z,7.13
2022-10-22T22:13:35.205Z,7.32
2022-10-22T22:16:07.585Z,7.38
2022-10-22T22:18:35.898Z,6.80
2022-10-22T22:21:08.386Z,7.38
2022-10-22T22:23:41.152Z,7.47
2022-10-22T22:26:09.441Z,6.75
2022-10-22T22:28:37.564Z,7.22
2022-10-22T22:31:19.459Z,7.53
2022-10-22T22:33:46.462Z,7.07
2022-10-22T22:36:13.648Z,7.72
2022-10-22T22:38:41.349Z,7.05
2022-10-22T22:41:08.930Z,7.20
2022-10-22T22:43:36.542Z,7.30
2022-10-22T22:46:06.916Z,6.50
2022-10-22T22:48:34.888Z,6.35
2022-10-22T22:51:03.814Z,6.00
2022-10-22T22:53:30.990Z,6.38
2022-10-22T22:56:22.226Z,5.63
2022-10-22T22:58:49.245Z,6.18
2022-10-22T23:01:19.855Z,5.93
2022-10-22T23:03:52.732Z,6.00
2022-10-22T23:06:19.898Z,6.05
2022-10-22T23:08:50.779Z,6.43
2022-10-22T23:11:19.321Z,7.20
2022-10-22T23:13:46.854Z,6.72
2022-10-22T23:16:17.587Z,6.05
2022-10-22T23:18:46.080Z,6.55
2022-10-22T23:21:18.814Z,5.78
2022-10-22T23:23:48.032Z,6.15
2022-10-22T23:26:19.208Z,6.03
2022-10-22T23:28:46.650Z,5.90
2022-10-22T23:31:15.843Z,6.00
2022-10-22T23:33:44.028Z,5.97
2022-10-22T23:36:11.538Z,6.78
2022-10-22T23:38:40.096Z,5.88
2022-10-22T23:41:07.657Z,5.90
2022-10-22T23:43:36.228Z,5.60
2022-10-22T23:46:07.592Z,6.45
2022-10-22T23:48:35.499Z,6.10
2022-10-22T23:51:14.004Z,5.70
2022-10-22T23:53:42.193Z,6.43
2022-10-22T23:56:19.616Z,6.00
2022-10-22T23:58:51.782Z,6.30
